Terminal Aerodrome Forecast
Issued by NWS

Home | Current Version | Previous Version | Text Only | Print | Product List | Glossary On
Versions: 1 2 3 4 5 6 7 8 9 10 11 12 13 14 15 16 17
116
FTUS42 KFFC 191129
TAFPDK
TAF
KPDK 191129Z 1912/2012 28010KT P6SM FEW035
     FM191300 32010G18KT P6SM FEW040
     FM191500 32015G25KT P6SM SKC
     FM200000 33010KT P6SM SKC
     FM200900 03007KT P6SM SKC=

USA.gov is the U.S. government's official web portal to all federal, state and local government web resources and services.